Time,TemperatureF,DewpointF,PressureIn,WindDirection,WindDirectionDegrees,WindSpeedMPH,WindSpeedGustMPH,Humidity,HourlyPrecipIn,Conditions,Clouds,dailyrainin,SoftwareType,DateUTC
2013-01-10 00:02:00,35.5,33.8,29.97,East,90,0.0,0.7,94,0.00,,,0.00,WUHU216HW,2013-01-10 08:02:00,
2013-01-10 00:07:00,35.5,33.8,29.97,SW,225,0.4,1.1,94,0.00,,,0.00,WUHU216HW,2013-01-10 08:07:00,
2013-01-10 00:12:00,35.1,33.5,29.97,NNE,23,0.9,1.1,94,0.00,,,0.00,WUHU216HW,2013-01-10 08:12:00,
2013-01-10 00:17:00,34.9,33.3,29.97,NE,45,0.7,1.1,94,0.00,,,0.00,WUHU216HW,2013-01-10 08:17:00,
2013-01-10 00:22:00,34.9,33.6,29.97,ENE,68,0.4,1.1,95,0.00,,,0.00,WUHU216HW,2013-01-10 08:22:00,
2013-01-10 00:27:00,34.9,33.6,29.97,NE,45,0.4,1.1,95,0.00,,,0.00,WUHU216HW,2013-01-10 08:27:00,
2013-01-10 00:32:00,34.9,33.6,29.97,ESE,113,0.4,1.3,95,0.00,,,0.00,WUHU216HW,2013-01-10 08:32:00,
2013-01-10 00:37:00,35.1,33.5,29.97,NE,45,1.1,1.3,94,0.00,,,0.00,WUHU216HW,2013-01-10 08:37:00,
2013-01-10 00:42:00,35.3,33.7,29.96,West,270,0.0,1.1,94,0.00,,,0.00,WUHU216HW,2013-01-10 08:42:00,
2013-01-10 00:47:00,35.5,34.1,29.96,North,0,2.0,2.0,95,0.00,,,0.00,WUHU216HW,2013-01-10 08:47:00,
2013-01-10 00:53:00,35.6,34.3,29.97,NNE,23,1.6,2.0,95,0.00,,,0.00,WUHU216HW,2013-01-10 08:53:00,
2013-01-10 00:58:00,35.6,34.3,29.97,SSW,203,1.1,2.0,95,0.00,,,0.00,WUHU216HW,2013-01-10 08:58:00,
2013-01-10 01:03:00,36.4,35.0,29.97,NNW,338,4.9,7.6,95,0.00,,,0.00,WUHU216HW,2013-01-10 09:03:00,
2013-01-10 01:08:00,36.5,35.2,29.97,NNW,338,3.8,7.6,95,0.00,,,0.00,WUHU216HW,2013-01-10 09:08:00,
2013-01-10 01:13:00,36.5,35.2,29.97,East,90,1.3,5.1,95,0.00,,,0.00,WUHU216HW,2013-01-10 09:13:00,
2013-01-10 01:18:00,36.4,35.0,29.98,East,90,0.0,2.2,95,0.00,,,0.00,WUHU216HW,2013-01-10 09:18:00,
2013-01-10 01:23:00,36.2,34.8,29.98,NNE,23,1.1,1.6,95,0.00,,,0.00,WUHU216HW,2013-01-10 09:23:00,
2013-01-10 01:28:00,36.0,34.7,29.98,North,0,1.1,1.6,95,0.00,,,0.00,WUHU216HW,2013-01-10 09:28:00,
2013-01-10 01:33:00,36.0,34.7,29.98,NNE,23,0.7,1.1,95,0.00,,,0.00,WUHU216HW,2013-01-10 09:33:00,
2013-01-10 01:38:00,35.8,34.5,29.98,East,90,0.2,0.9,95,0.00,,,0.00,WUHU216HW,2013-01-10 09:38:00,
2013-01-10 01:43:00,35.6,34.0,29.98,East,90,0.0,0.4,94,0.00,,,0.00,WUHU216HW,2013-01-10 09:43:00,
2013-01-10 01:48:00,35.6,34.0,29.99,North,0,0.0,0.0,94,0.00,,,0.00,WUHU216HW,2013-01-10 09:48:00,
2013-01-10 01:53:00,35.6,34.3,29.99,NW,315,2.5,2.9,95,0.00,,,0.00,WUHU216HW,2013-01-10 09:53:00,
2013-01-10 01:58:00,35.6,34.3,29.99,NE,45,0.4,2.9,95,0.00,,,0.00,WUHU216HW,2013-01-10 09:58:00,
2013-01-10 02:03:00,35.6,34.3,29.99,East,90,0.2,1.3,95,0.00,,,0.00,WUHU216HW,2013-01-10 10:03:00,
2013-01-10 02:08:00,35.5,33.8,29.99,North,0,0.0,0.7,94,0.00,,,0.00,WUHU216HW,2013-01-10 10:08:00,
2013-01-10 02:13:00,35.1,33.8,30.00,North,0,1.1,1.3,95,0.00,,,0.00,WUHU216HW,2013-01-10 10:13:00,
2013-01-10 02:18:00,35.1,33.8,29.99,NNW,338,0.0,1.3,95,0.00,,,0.00,WUHU216HW,2013-01-10 10:18:00,
2013-01-10 02:23:00,35.1,33.8,30.00,North,0,0.0,1.1,95,0.00,,,0.00,WUHU216HW,2013-01-10 10:23:00,
2013-01-10 02:28:00,35.1,33.8,30.00,NNE,23,0.4,1.1,95,0.00,,,0.00,WUHU216HW,2013-01-10 10:28:00,
2013-01-10 02:33:00,35.1,33.8,30.00,North,0,0.4,0.7,95,0.00,,,0.00,WUHU216HW,2013-01-10 10:33:00,
2013-01-10 02:38:00,35.1,33.8,30.00,NE,45,0.0,0.4,95,0.00,,,0.00,WUHU216HW,2013-01-10 10:38:00,
2013-01-10 02:43:00,35.1,33.8,30.00,East,90,0.0,0.4,95,0.00,,,0.00,WUHU216HW,2013-01-10 10:43:00,
2013-01-10 02:48:00,34.9,33.6,30.00,NNE,23,0.7,0.7,95,0.00,,,0.00,WUHU216HW,2013-01-10 10:48:00,
2013-01-10 02:53:00,34.9,33.6,30.01,North,0,1.1,1.1,95,0.00,,,0.00,WUHU216HW,2013-01-10 10:53:00,
2013-01-10 02:58:00,34.9,33.6,30.01,NNE,23,0.4,1.1,95,0.00,,,0.00,WUHU216HW,2013-01-10 10:58:00,
2013-01-10 03:03:00,34.9,33.6,30.01,NE,45,0.0,1.1,95,0.00,,,0.00,WUHU216HW,2013-01-10 11:03:00,
2013-01-10 03:08:00,34.9,33.6,30.01,ENE,68,0.0,0.4,95,0.00,,,0.00,WUHU216HW,2013-01-10 11:08:00,
2013-01-10 03:13:00,34.9,33.6,30.01,ENE,68,0.0,0.9,95,0.00,,,0.00,WUHU216HW,2013-01-10 11:13:00,
2013-01-10 03:18:00,34.9,33.6,30.01,SSW,203,0.0,0.9,95,0.00,,,0.00,WUHU216HW,2013-01-10 11:18:00,
2013-01-10 03:23:00,35.1,33.8,30.01,NNW,338,0.2,0.4,95,0.00,,,0.00,WUHU216HW,2013-01-10 11:23:00,
2013-01-10 03:28:00,35.3,33.9,30.01,WNW,293,1.6,1.6,95,0.00,,,0.00,WUHU216HW,2013-01-10 11:28:00,
2013-01-10 03:33:00,35.5,34.1,30.01,NNE,23,0.0,1.6,95,0.00,,,0.00,WUHU216HW,2013-01-10 11:33:00,
2013-01-10 03:38:00,35.6,34.3,30.01,NW,315,0.0,1.1,95,0.00,,,0.00,WUHU216HW,2013-01-10 11:38:00,
2013-01-10 03:43:00,35.5,34.1,30.01,NW,315,1.1,2.5,95,0.00,,,0.00,WUHU216HW,2013-01-10 11:43:00,
2013-01-10 03:48:00,35.5,34.1,30.01,NNW,338,0.9,2.5,95,0.00,,,0.00,WUHU216HW,2013-01-10 11:48:00,
2013-01-10 03:53:00,35.5,34.1,30.01,North,0,0.7,1.8,95,0.00,,,0.00,WUHU216HW,2013-01-10 11:53:00,
2013-01-10 03:58:00,35.6,34.3,30.01,NW,315,1.1,1.3,95,0.00,,,0.00,WUHU216HW,2013-01-10 11:58:00,
2013-01-10 04:03:00,35.6,34.3,30.02,NNW,338,0.2,1.1,95,0.00,,,0.00,WUHU216HW,2013-01-10 12:03:00,
2013-01-10 04:08:00,35.6,34.3,30.01,NE,45,0.0,0.9,95,0.00,,,0.00,WUHU216HW,2013-01-10 12:08:00,
2013-01-10 04:13:00,35.5,34.1,30.01,East,90,0.4,1.1,95,0.00,,,0.00,WUHU216HW,2013-01-10 12:13:00,
2013-01-10 04:18:00,35.3,33.9,30.01,ENE,68,0.0,1.1,95,0.00,,,0.00,WUHU216HW,2013-01-10 12:18:00,
2013-01-10 04:23:00,35.3,33.9,30.01,ENE,68,0.0,1.1,95,0.00,,,0.00,WUHU216HW,2013-01-10 12:23:00,
2013-01-10 04:28:00,35.1,33.8,30.01,ENE,68,0.0,0.4,95,0.00,,,0.00,WUHU216HW,2013-01-10 12:28:00,
2013-01-10 04:33:00,35.1,33.8,30.01,ENE,68,0.0,0.4,95,0.00,,,0.00,WUHU216HW,2013-01-10 12:33:00,
2013-01-10 04:38:00,34.9,33.6,30.01,ESE,113,0.4,0.9,95,0.00,,,0.00,WUHU216HW,2013-01-10 12:38:00,
2013-01-10 04:43:00,34.9,33.6,30.01,NE,45,0.7,1.1,95,0.00,,,0.00,WUHU216HW,2013-01-10 12:43:00,
2013-01-10 04:48:00,35.1,33.8,30.01,NNE,23,0.0,1.1,95,0.00,,,0.00,WUHU216HW,2013-01-10 12:48:00,
2013-01-10 04:53:00,34.9,33.6,30.01,North,0,0.2,0.7,95,0.00,,,0.00,WUHU216HW,2013-01-10 12:53:00,
2013-01-10 04:58:00,35.1,33.8,30.02,North,0,0.2,2.0,95,0.00,,,0.00,WUHU216HW,2013-01-10 12:58:00,
2013-01-10 05:03:00,35.3,33.9,30.02,North,0,0.4,2.0,95,0.00,,,0.00,WUHU216HW,2013-01-10 13:03:00,
2013-01-10 05:08:00,35.5,34.1,30.02,NNW,338,0.0,0.9,95,0.00,,,0.00,WUHU216HW,2013-01-10 13:08:00,
2013-01-10 05:13:00,35.5,34.1,30.02,NW,315,1.3,1.3,95,0.00,,,0.00,WUHU216HW,2013-01-10 13:13:00,
2013-01-10 05:18:00,35.6,34.3,30.02,North,0,0.0,1.3,95,0.00,,,0.00,WUHU216HW,2013-01-10 13:18:00,
2013-01-10 05:23:00,35.6,34.3,30.02,SE,135,0.0,1.1,95,0.00,,,0.00,WUHU216HW,2013-01-10 13:23:00,
2013-01-10 05:28:00,35.6,34.3,30.02,South,180,1.8,1.8,95,0.00,,,0.00,WUHU216HW,2013-01-10 13:28:00,
2013-01-10 05:33:00,35.6,34.3,30.02,NE,45,1.1,1.8,95,0.00,,,0.00,WUHU216HW,2013-01-10 13:33:00,
2013-01-10 05:38:00,35.5,34.1,30.02,NE,45,0.4,1.8,95,0.00,,,0.00,WUHU216HW,2013-01-10 13:38:00,
2013-01-10 05:43:00,35.3,33.9,30.02,NNE,23,0.7,0.9,95,0.00,,,0.00,WUHU216HW,2013-01-10 13:43:00,
2013-01-10 05:48:00,35.3,33.9,30.02,North,0,0.7,1.8,95,0.00,,,0.00,WUHU216HW,2013-01-10 13:48:00,
2013-01-10 05:53:00,35.3,33.9,30.03,North,0,0.0,1.8,95,0.00,,,0.00,WUHU216HW,2013-01-10 13:53:00,
2013-01-10 05:58:00,35.5,34.1,30.03,North,0,0.9,1.1,95,0.00,,,0.00,WUHU216HW,2013-01-10 13:58:00,
2013-01-10 06:03:00,35.5,34.1,30.03,North,0,1.1,1.1,95,0.00,,,0.00,WUHU216HW,2013-01-10 14:03:00,
2013-01-10 06:08:00,35.6,34.3,30.04,North,0,0.0,1.1,95,0.00,,,0.00,WUHU216HW,2013-01-10 14:08:00,
2013-01-10 06:13:00,35.6,34.3,30.04,NE,45,0.9,0.9,95,0.00,,,0.00,WUHU216HW,2013-01-10 14:13:00,
2013-01-10 06:18:00,35.6,34.3,30.04,NNE,23,0.0,0.9,95,0.00,,,0.00,WUHU216HW,2013-01-10 14:18:00,
2013-01-10 06:23:00,35.6,34.3,30.04,ESE,113,0.0,0.9,95,0.00,,,0.00,WUHU216HW,2013-01-10 14:23:00,
2013-01-10 06:28:00,35.5,34.1,30.04,NE,45,0.4,0.7,95,0.00,,,0.00,WUHU216HW,2013-01-10 14:28:00,
2013-01-10 06:33:00,35.5,34.1,30.04,ENE,68,0.4,0.7,95,0.00,,,0.00,WUHU216HW,2013-01-10 14:33:00,
2013-01-10 06:38:00,35.5,34.1,30.05,NNE,23,1.1,1.1,95,0.00,,,0.00,WUHU216HW,2013-01-10 14:38:00,
2013-01-10 06:43:00,35.6,34.3,30.05,North,0,0.0,1.1,95,0.00,,,0.00,WUHU216HW,2013-01-10 14:43:00,
2013-01-10 06:48:00,35.6,34.3,30.05,NE,45,0.0,0.7,95,0.00,,,0.00,WUHU216HW,2013-01-10 14:48:00,
2013-01-10 06:53:00,35.6,34.3,30.05,WSW,248,0.0,0.4,95,0.00,,,0.00,WUHU216HW,2013-01-10 14:53:00,
2013-01-10 06:58:00,35.6,34.3,30.06,West,270,1.1,2.9,95,0.00,,,0.00,WUHU216HW,2013-01-10 14:58:00,
2013-01-10 07:03:00,36.0,34.7,30.06,West,270,3.1,4.0,95,0.00,,,0.00,WUHU216HW,2013-01-10 15:03:00,
2013-01-10 07:08:00,36.0,34.7,30.06,WNW,293,1.1,4.0,95,0.00,,,0.00,WUHU216HW,2013-01-10 15:08:00,
2013-01-10 07:13:00,36.0,34.7,30.06,WNW,293,0.2,2.9,95,0.00,,,0.00,WUHU216HW,2013-01-10 15:13:00,
2013-01-10 07:18:00,36.0,34.7,30.06,NNW,338,0.9,1.6,95,0.00,,,0.00,WUHU216HW,2013-01-10 15:18:00,
2013-01-10 07:23:00,36.0,34.7,30.07,North,0,0.7,1.1,95,0.00,,,0.00,WUHU216HW,2013-01-10 15:23:00,
2013-01-10 07:28:00,36.0,34.7,30.07,North,0,0.0,0.7,95,0.00,,,0.00,WUHU216HW,2013-01-10 15:28:00,
2013-01-10 07:33:00,36.0,34.7,30.07,ESE,113,0.0,0.4,95,0.00,,,0.00,WUHU216HW,2013-01-10 15:33:00,
2013-01-10 07:38:00,35.8,34.5,30.07,East,90,0.0,0.4,95,0.00,,,0.00,WUHU216HW,2013-01-10 15:38:00,
2013-01-10 07:43:00,35.6,34.3,30.07,NNE,23,0.0,1.1,95,0.00,,,0.00,WUHU216HW,2013-01-10 15:43:00,
2013-01-10 07:48:00,35.5,34.1,30.07,North,0,0.7,1.1,95,0.00,,,0.00,WUHU216HW,2013-01-10 15:48:00,
2013-01-10 07:53:00,35.3,33.9,30.08,ENE,68,1.1,1.1,95,0.00,,,0.00,WUHU216HW,2013-01-10 15:53:00,
2013-01-10 07:58:00,35.1,33.8,30.08,ENE,68,1.3,1.3,95,0.00,,,0.00,WUHU216HW,2013-01-10 15:58:00,
2013-01-10 08:03:00,34.9,33.6,30.07,ENE,68,0.0,1.3,95,0.00,,,0.00,WUHU216HW,2013-01-10 16:03:00,
2013-01-10 08:08:00,34.9,33.6,30.08,NE,45,0.4,1.1,95,0.00,,,0.00,WUHU216HW,2013-01-10 16:08:00,
2013-01-10 08:13:00,34.6,33.2,30.08,NE,45,0.4,0.7,95,0.00,,,0.00,WUHU216HW,2013-01-10 16:13:00,
2013-01-10 08:18:00,34.2,32.9,30.09,ENE,68,0.7,0.7,95,0.00,,,0.00,WUHU216HW,2013-01-10 16:18:00,
2013-01-10 08:23:00,34.2,32.9,30.09,North,0,0.9,0.9,95,0.00,,,0.00,WUHU216HW,2013-01-10 16:23:00,
2013-01-10 08:28:00,34.2,32.9,30.09,NNE,23,1.3,1.3,95,0.00,,,0.00,WUHU216HW,2013-01-10 16:28:00,
2013-01-10 08:33:00,34.6,33.2,30.09,ESE,113,0.4,1.3,95,0.00,,,0.00,WUHU216HW,2013-01-10 16:33:00,
2013-01-10 08:38:00,34.6,33.2,30.09,NNE,23,0.0,0.7,95,0.00,,,0.00,WUHU216HW,2013-01-10 16:38:00,
2013-01-10 08:43:00,34.7,33.4,30.10,North,0,0.0,0.7,95,0.00,,,0.00,WUHU216HW,2013-01-10 16:43:00,
2013-01-10 08:48:00,34.9,33.6,30.10,North,0,0.0,0.0,95,0.00,,,0.00,WUHU216HW,2013-01-10 16:48:00,
2013-01-10 08:53:00,35.3,33.9,30.09,East,90,0.7,0.9,95,0.00,,,0.00,WUHU216HW,2013-01-10 16:53:00,
2013-01-10 08:58:00,35.5,34.1,30.10,ESE,113,0.0,0.9,95,0.00,,,0.00,WUHU216HW,2013-01-10 16:58:00,
2013-01-10 09:03:00,35.6,34.3,30.10,ESE,113,0.0,0.0,95,0.00,,,0.00,WUHU216HW,2013-01-10 17:03:00,
2013-01-10 09:08:00,36.0,34.7,30.10,SW,225,3.4,3.4,95,0.00,,,0.00,WUHU216HW,2013-01-10 17:08:00,
2013-01-10 09:13:00,36.0,34.7,30.10,SW,225,4.7,4.7,95,0.00,,,0.00,WUHU216HW,2013-01-10 17:13:00,
2013-01-10 09:18:00,36.0,34.4,30.10,SSW,203,4.0,4.7,94,0.00,,,0.00,WUHU216HW,2013-01-10 17:18:00,
2013-01-10 09:23:00,36.4,34.7,30.10,South,180,3.1,6.3,94,0.00,,,0.00,WUHU216HW,2013-01-10 17:23:00,
2013-01-10 09:28:00,36.4,34.7,30.10,SSW,203,3.4,6.3,94,0.00,,,0.00,WUHU216HW,2013-01-10 17:28:00,
2013-01-10 09:33:00,36.4,34.7,30.10,South,180,3.4,5.8,94,0.02,,,0.02,WUHU216HW,2013-01-10 17:33:00,
2013-01-10 09:38:00,36.5,34.9,30.10,SSW,203,3.6,4.3,94,0.02,,,0.02,WUHU216HW,2013-01-10 17:38:00,
2013-01-10 09:43:00,36.5,34.9,30.10,SE,135,0.0,3.6,94,0.02,,,0.02,WUHU216HW,2013-01-10 17:43:00,
2013-01-10 09:48:00,36.4,34.7,30.10,SSE,158,0.0,3.4,94,0.02,,,0.02,WUHU216HW,2013-01-10 17:48:00,
2013-01-10 09:53:00,36.5,34.9,30.10,SSE,158,0.9,1.6,94,0.02,,,0.02,WUHU216HW,2013-01-10 17:53:00,
2013-01-10 09:58:00,36.7,35.1,30.11,SSW,203,0.7,1.8,94,0.02,,,0.02,WUHU216HW,2013-01-10 17:58:00,
2013-01-10 10:03:00,36.5,34.9,30.11,South,180,4.0,4.0,94,0.02,,,0.02,WUHU216HW,2013-01-10 18:03:00,
2013-01-10 10:08:00,36.7,35.1,30.11,SE,135,0.0,4.0,94,0.02,,,0.02,WUHU216HW,2013-01-10 18:08:00,
2013-01-10 10:13:00,36.9,35.3,30.11,NNE,23,0.2,2.2,94,0.02,,,0.02,WUHU216HW,2013-01-10 18:13:00,
2013-01-10 10:18:00,37.1,35.5,30.11,South,180,2.2,2.2,94,0.02,,,0.02,WUHU216HW,2013-01-10 18:18:00,
2013-01-10 10:23:00,37.1,35.5,30.11,SE,135,1.6,4.3,94,0.02,,,0.02,WUHU216HW,2013-01-10 18:23:00,
2013-01-10 10:28:00,37.1,35.5,30.11,SSW,203,2.5,4.3,94,0.02,,,0.02,WUHU216HW,2013-01-10 18:28:00,
2013-01-10 10:33:00,37.1,35.5,30.11,South,180,3.4,5.6,94,0.00,,,0.02,WUHU216HW,2013-01-10 18:33:00,
2013-01-10 10:38:00,37.3,35.6,30.11,South,180,5.6,5.6,94,0.00,,,0.02,WUHU216HW,2013-01-10 18:38:00,
2013-01-10 10:43:00,37.4,35.8,30.11,South,180,1.8,5.6,94,0.00,,,0.02,WUHU216HW,2013-01-10 18:43:00,
2013-01-10 10:48:00,37.4,35.8,30.10,SE,135,1.1,4.0,94,0.00,,,0.02,WUHU216HW,2013-01-10 18:48:00,
2013-01-10 10:53:00,37.6,36.0,30.10,SE,135,0.7,2.5,94,0.00,,,0.02,WUHU216HW,2013-01-10 18:53:00,
2013-01-10 10:58:00,37.8,36.2,30.10,SSE,158,2.5,4.0,94,0.00,,,0.02,WUHU216HW,2013-01-10 18:58:00,
2013-01-10 11:03:00,37.8,35.9,30.10,South,180,5.6,6.0,93,0.00,,,0.02,WUHU216HW,2013-01-10 19:03:00,
2013-01-10 11:08:00,37.8,35.9,30.10,SSW,203,2.0,6.0,93,0.00,,,0.02,WUHU216HW,2013-01-10 19:08:00,
2013-01-10 11:13:00,37.8,35.9,30.10,SW,225,2.5,4.9,93,0.00,,,0.02,WUHU216HW,2013-01-10 19:13:00,
2013-01-10 11:18:00,37.6,35.7,30.10,SE,135,0.7,4.7,93,0.00,,,0.02,WUHU216HW,2013-01-10 19:18:00,
2013-01-10 11:23:00,37.6,35.7,30.09,South,180,0.4,3.6,93,0.00,,,0.02,WUHU216HW,2013-01-10 19:23:00,
2013-01-10 11:28:00,37.8,35.9,30.09,East,90,0.0,3.6,93,0.00,,,0.02,WUHU216HW,2013-01-10 19:28:00,
2013-01-10 11:33:00,37.8,36.2,30.09,South,180,1.1,1.1,94,0.00,,,0.02,WUHU216HW,2013-01-10 19:33:00,
2013-01-10 11:38:00,37.8,35.9,30.09,SE,135,0.7,5.4,93,0.00,,,0.02,WUHU216HW,2013-01-10 19:38:00,
2013-01-10 11:43:00,37.8,35.9,30.09,South,180,2.5,5.4,93,0.00,,,0.02,WUHU216HW,2013-01-10 19:43:00,
2013-01-10 11:48:00,37.8,35.9,30.09,South,180,4.3,5.4,93,0.00,,,0.02,WUHU216HW,2013-01-10 19:48:00,
2013-01-10 11:53:00,37.8,35.9,30.09,SE,135,3.4,5.4,93,0.00,,,0.02,WUHU216HW,2013-01-10 19:53:00,
2013-01-10 11:58:00,37.8,35.9,30.09,SE,135,0.7,4.3,93,0.00,,,0.02,WUHU216HW,2013-01-10 19:58:00,
2013-01-10 12:03:00,37.8,35.9,30.09,SSE,158,2.7,2.7,93,0.00,,,0.02,WUHU216HW,2013-01-10 20:03:00,
2013-01-10 12:08:00,37.8,35.9,30.09,ESE,113,0.2,3.4,93,0.00,,,0.02,WUHU216HW,2013-01-10 20:08:00,
2013-01-10 12:13:00,37.8,35.9,30.09,SSW,203,5.1,5.1,93,0.00,,,0.02,WUHU216HW,2013-01-10 20:13:00,
2013-01-10 12:18:00,37.8,35.9,30.08,South,180,6.3,6.7,93,0.00,,,0.02,WUHU216HW,2013-01-10 20:18:00,
2013-01-10 12:24:00,38.0,36.1,30.08,South,180,6.0,6.7,93,0.00,,,0.02,WUHU216HW,2013-01-10 20:24:00,
2013-01-10 12:29:00,37.8,35.6,30.08,SSW,203,7.6,7.6,92,0.00,,,0.02,WUHU216HW,2013-01-10 20:29:00,
2013-01-10 12:34:00,37.8,35.9,30.08,South,180,6.3,7.6,93,0.02,,,0.04,WUHU216HW,2013-01-10 20:34:00,
2013-01-10 12:39:00,37.6,35.5,30.09,SSW,203,3.4,6.9,92,0.02,,,0.04,WUHU216HW,2013-01-10 20:39:00,
2013-01-10 12:44:00,37.6,35.7,30.08,SSW,203,3.6,6.3,93,0.02,,,0.04,WUHU216HW,2013-01-10 20:44:00,
2013-01-10 12:49:00,37.4,35.6,30.08,SSW,203,2.2,3.8,93,0.02,,,0.04,WUHU216HW,2013-01-10 20:49:00,
2013-01-10 12:54:00,37.6,35.7,30.08,SSW,203,2.5,5.4,93,0.02,,,0.04,WUHU216HW,2013-01-10 20:54:00,
2013-01-10 12:59:00,37.6,35.7,30.08,SSW,203,2.7,5.4,93,0.02,,,0.04,WUHU216HW,2013-01-10 20:59:00,
2013-01-10 13:04:00,37.6,35.7,30.08,SSW,203,4.0,4.0,93,0.02,,,0.04,WUHU216HW,2013-01-10 21:04:00,
2013-01-10 13:09:00,37.6,35.7,30.08,SSW,203,2.9,4.0,93,0.02,,,0.04,WUHU216HW,2013-01-10 21:09:00,
2013-01-10 13:14:00,37.8,35.9,30.08,SSW,203,1.8,4.0,93,0.02,,,0.04,WUHU216HW,2013-01-10 21:14:00,
2013-01-10 13:19:00,37.8,35.9,30.09,SSW,203,2.2,4.0,93,0.02,,,0.04,WUHU216HW,2013-01-10 21:19:00,
2013-01-10 13:24:00,38.0,36.1,30.08,South,180,2.2,4.0,93,0.02,,,0.04,WUHU216HW,2013-01-10 21:24:00,
2013-01-10 13:29:00,38.0,36.1,30.08,SSW,203,2.2,5.6,93,0.04,,,0.06,WUHU216HW,2013-01-10 21:29:00,
2013-01-10 13:34:00,38.0,36.1,30.09,SW,225,1.3,5.6,93,0.02,,,0.06,WUHU216HW,2013-01-10 21:34:00,
2013-01-10 13:39:00,38.0,35.8,30.09,SSW,203,2.5,2.5,92,0.02,,,0.06,WUHU216HW,2013-01-10 21:39:00,
2013-01-10 13:44:00,38.2,36.0,30.09,WSW,248,3.8,5.8,92,0.02,,,0.06,WUHU216HW,2013-01-10 21:44:00,
2013-01-10 13:49:00,38.2,36.0,30.09,WSW,248,3.6,5.8,92,0.02,,,0.06,WUHU216HW,2013-01-10 21:49:00,
2013-01-10 13:54:00,38.2,36.0,30.09,WSW,248,6.3,6.3,92,0.02,,,0.06,WUHU216HW,2013-01-10 21:54:00,
2013-01-10 13:59:00,38.3,36.2,30.09,WSW,248,1.1,6.3,92,0.02,,,0.06,WUHU216HW,2013-01-10 21:59:00,
2013-01-10 14:04:00,38.5,36.4,30.09,WSW,248,4.9,7.6,92,0.02,,,0.06,WUHU216HW,2013-01-10 22:04:00,
2013-01-10 14:09:00,38.5,36.1,30.09,WSW,248,2.9,7.6,91,0.02,,,0.06,WUHU216HW,2013-01-10 22:09:00,
2013-01-10 14:14:00,38.7,36.3,30.09,West,270,8.1,8.1,91,0.02,,,0.06,WUHU216HW,2013-01-10 22:14:00,
2013-01-10 14:19:00,38.7,36.3,30.09,WSW,248,3.4,8.1,91,0.02,,,0.06,WUHU216HW,2013-01-10 22:19:00,
2013-01-10 14:24:00,38.7,36.0,30.09,West,270,2.7,6.0,90,0.00,,,0.06,WUHU216HW,2013-01-10 22:24:00,
2013-01-10 14:29:00,38.9,36.2,30.09,WSW,248,4.7,4.7,90,0.00,,,0.06,WUHU216HW,2013-01-10 22:29:00,
2013-01-10 14:34:00,38.9,36.5,30.09,WSW,248,3.1,4.7,91,0.00,,,0.06,WUHU216HW,2013-01-10 22:34:00,
2013-01-10 14:39:00,38.9,36.2,30.09,WSW,248,4.7,5.8,90,0.00,,,0.06,WUHU216HW,2013-01-10 22:39:00,
2013-01-10 14:44:00,38.9,36.2,30.09,WSW,248,4.9,6.0,90,0.00,,,0.06,WUHU216HW,2013-01-10 22:44:00,
2013-01-10 14:49:00,38.9,36.2,30.09,WSW,248,4.0,6.0,90,0.00,,,0.06,WUHU216HW,2013-01-10 22:49:00,
2013-01-10 14:54:00,38.9,36.2,30.09,WSW,248,4.0,5.8,90,0.00,,,0.06,WUHU216HW,2013-01-10 22:54:00,
2013-01-10 14:59:00,39.1,36.4,30.09,WSW,248,7.2,7.4,90,0.00,,,0.06,WUHU216HW,2013-01-10 22:59:00,
2013-01-10 15:04:00,38.9,35.9,30.09,WNW,293,2.2,7.4,89,0.00,,,0.06,WUHU216HW,2013-01-10 23:04:00,
2013-01-10 15:09:00,39.1,36.4,30.09,WSW,248,4.7,5.4,90,0.00,,,0.06,WUHU216HW,2013-01-10 23:09:00,
2013-01-10 15:14:00,39.2,36.5,30.09,WSW,248,2.2,4.7,90,0.00,,,0.06,WUHU216HW,2013-01-10 23:14:00,
2013-01-10 15:19:00,39.1,36.4,30.09,WSW,248,6.0,6.3,90,0.00,,,0.06,WUHU216HW,2013-01-10 23:19:00,
2013-01-10 15:24:00,39.1,36.1,30.09,SW,225,1.1,6.3,89,0.00,,,0.06,WUHU216HW,2013-01-10 23:24:00,
2013-01-10 15:29:00,39.1,36.1,30.09,WSW,248,5.6,6.7,89,0.00,,,0.06,WUHU216HW,2013-01-10 23:29:00,
2013-01-10 15:34:00,39.2,36.5,30.09,West,270,2.9,6.7,90,0.00,,,0.06,WUHU216HW,2013-01-10 23:34:00,
2013-01-10 15:39:00,39.2,36.5,30.09,WNW,293,2.0,4.7,90,0.00,,,0.06,WUHU216HW,2013-01-10 23:39:00,
2013-01-10 15:44:00,39.2,36.5,30.10,West,270,3.4,4.0,90,0.00,,,0.06,WUHU216HW,2013-01-10 23:44:00,
2013-01-10 15:49:00,39.2,36.5,30.10,WSW,248,2.5,4.3,90,0.00,,,0.06,WUHU216HW,2013-01-10 23:49:00,
2013-01-10 15:54:00,39.2,36.5,30.10,West,270,3.6,4.3,90,0.00,,,0.06,WUHU216HW,2013-01-10 23:54:00,
2013-01-10 15:59:00,39.2,36.5,30.10,NNW,338,0.4,3.6,90,0.00,,,0.06,WUHU216HW,2013-01-10 23:59:00,
2013-01-10 16:04:00,39.2,36.8,30.11,North,0,3.6,4.3,91,0.00,,,0.06,WUHU216HW,2013-01-11 00:04:00,
2013-01-10 16:09:00,39.1,36.6,30.10,NNE,23,3.4,4.3,91,0.00,,,0.06,WUHU216HW,2013-01-11 00:09:00,
2013-01-10 16:14:00,38.9,36.2,30.10,North,0,2.5,3.4,90,0.00,,,0.06,WUHU216HW,2013-01-11 00:14:00,
2013-01-10 16:19:00,38.5,35.8,30.11,North,0,1.8,4.5,90,0.00,,,0.06,WUHU216HW,2013-01-11 00:19:00,
2013-01-10 16:24:00,38.3,35.6,30.11,North,0,2.2,4.5,90,0.00,,,0.06,WUHU216HW,2013-01-11 00:24:00,
2013-01-10 16:29:00,38.2,35.5,30.11,NNE,23,2.0,2.9,90,0.00,,,0.06,WUHU216HW,2013-01-11 00:29:00,
2013-01-10 16:34:00,37.8,35.4,30.11,NNE,23,1.6,2.7,91,0.00,,,0.06,WUHU216HW,2013-01-11 00:34:00,
2013-01-10 16:39:00,37.8,35.4,30.11,NE,45,0.4,2.7,91,0.00,,,0.06,WUHU216HW,2013-01-11 00:39:00,
2013-01-10 16:44:00,37.4,35.0,30.11,North,0,2.2,2.2,91,0.00,,,0.06,WUHU216HW,2013-01-11 00:44:00,
2013-01-10 16:49:00,37.3,34.8,30.11,NE,45,1.1,2.7,91,0.00,,,0.06,WUHU216HW,2013-01-11 00:49:00,
2013-01-10 16:54:00,37.1,34.7,30.11,NNE,23,1.1,2.7,91,0.00,,,0.06,WUHU216HW,2013-01-11 00:54:00,
2013-01-10 16:59:00,36.7,34.3,30.11,NNE,23,2.5,2.5,91,0.00,,,0.06,WUHU216HW,2013-01-11 00:59:00,
2013-01-10 17:04:00,36.7,34.3,30.11,North,0,2.0,4.0,91,0.00,,,0.06,WUHU216HW,2013-01-11 01:04:00,
2013-01-10 17:09:00,36.7,34.3,30.11,NNE,23,1.1,4.0,91,0.00,,,0.06,WUHU216HW,2013-01-11 01:09:00,
2013-01-10 17:15:00,36.5,34.1,30.11,NNE,23,1.1,2.9,91,0.00,,,0.06,WUHU216HW,2013-01-11 01:15:00,
2013-01-10 17:20:00,36.4,33.9,30.11,ENE,68,0.7,1.6,91,0.00,,,0.06,WUHU216HW,2013-01-11 01:20:00,
2013-01-10 17:25:00,36.2,34.0,30.11,East,90,0.4,1.6,92,0.00,,,0.06,WUHU216HW,2013-01-11 01:25:00,
2013-01-10 17:30:00,36.0,33.8,30.11,ENE,68,1.1,1.6,92,0.00,,,0.06,WUHU216HW,2013-01-11 01:30:00,
2013-01-10 17:35:00,35.8,33.7,30.11,ENE,68,1.6,1.6,92,0.00,,,0.06,WUHU216HW,2013-01-11 01:35:00,
2013-01-10 17:40:00,35.5,33.3,30.11,ENE,68,0.7,1.6,92,0.00,,,0.06,WUHU216HW,2013-01-11 01:40:00,
2013-01-10 17:45:00,35.1,32.9,30.11,East,90,1.6,1.6,92,0.00,,,0.06,WUHU216HW,2013-01-11 01:45:00,
2013-01-10 17:50:00,34.7,32.6,30.11,ESE,113,1.8,1.8,92,0.00,,,0.06,WUHU216HW,2013-01-11 01:50:00,
2013-01-10 17:55:00,34.6,32.4,30.11,ENE,68,1.3,2.5,92,0.00,,,0.06,WUHU216HW,2013-01-11 01:55:00,
2013-01-10 18:00:00,34.4,32.2,30.11,ENE,68,0.7,2.5,92,0.00,,,0.06,WUHU216HW,2013-01-11 02:00:00,
2013-01-10 18:05:00,34.2,32.0,30.11,ENE,68,1.1,1.6,92,0.00,,,0.06,WUHU216HW,2013-01-11 02:05:00,
2013-01-10 18:10:00,34.0,31.9,30.11,East,90,1.8,1.8,92,0.00,,,0.06,WUHU216HW,2013-01-11 02:10:00,
2013-01-10 18:15:00,33.8,31.7,30.11,ENE,68,2.0,2.7,92,0.00,,,0.06,WUHU216HW,2013-01-11 02:15:00,
2013-01-10 18:20:00,33.8,31.7,30.11,East,90,1.8,2.7,92,0.00,,,0.06,WUHU216HW,2013-01-11 02:20:00,
2013-01-10 18:25:00,33.7,31.5,30.11,ENE,68,0.7,2.9,92,0.00,,,0.06,WUHU216HW,2013-01-11 02:25:00,
2013-01-10 18:30:00,33.7,31.8,30.11,East,90,2.9,3.4,93,0.00,,,0.06,WUHU216HW,2013-01-11 02:30:00,
2013-01-10 18:35:00,33.5,31.3,30.11,NE,45,1.3,3.4,92,0.00,,,0.06,WUHU216HW,2013-01-11 02:35:00,
2013-01-10 18:40:00,33.3,31.1,30.11,ENE,68,2.5,2.5,92,0.00,,,0.06,WUHU216HW,2013-01-11 02:40:00,
2013-01-10 18:45:00,33.3,31.1,30.11,East,90,0.0,2.5,92,0.00,,,0.06,WUHU216HW,2013-01-11 02:45:00,
2013-01-10 18:50:00,33.1,31.1,30.11,ENE,68,1.1,2.5,92,0.00,,,0.06,WUHU216HW,2013-01-11 02:50:00,
2013-01-10 18:55:00,33.1,31.1,30.11,ENE,68,1.1,2.2,92,0.00,,,0.06,WUHU216HW,2013-01-11 02:55:00,
2013-01-10 19:00:00,32.9,30.9,30.12,ENE,68,0.4,1.6,92,0.00,,,0.06,WUHU216HW,2013-01-11 03:00:00,
2013-01-10 19:05:00,32.8,30.7,30.12,NE,45,0.4,0.9,92,0.00,,,0.06,WUHU216HW,2013-01-11 03:05:00,
2013-01-10 19:10:00,32.8,30.7,30.12,ENE,68,1.8,1.8,92,0.00,,,0.06,WUHU216HW,2013-01-11 03:10:00,
2013-01-10 19:15:00,32.8,30.7,30.12,East,90,1.8,3.1,92,0.00,,,0.06,WUHU216HW,2013-01-11 03:15:00,
2013-01-10 19:20:00,32.8,30.7,30.12,ENE,68,0.4,3.1,92,0.00,,,0.06,WUHU216HW,2013-01-11 03:20:00,
2013-01-10 19:25:00,32.8,30.7,30.12,ENE,68,1.6,2.7,92,0.00,,,0.06,WUHU216HW,2013-01-11 03:25:00,
2013-01-10 19:30:00,32.4,30.3,30.12,NNE,23,0.0,2.7,92,0.00,,,0.06,WUHU216HW,2013-01-11 03:30:00,
2013-01-10 19:35:00,32.2,30.2,30.12,ENE,68,0.2,0.7,92,0.00,,,0.06,WUHU216HW,2013-01-11 03:35:00,
2013-01-10 19:40:00,32.0,30.1,30.12,ENE,68,0.7,0.7,92,0.00,,,0.06,WUHU216HW,2013-01-11 03:40:00,
2013-01-10 19:45:00,32.0,30.2,30.12,ENE,68,0.7,1.1,93,0.00,,,0.06,WUHU216HW,2013-01-11 03:45:00,
2013-01-10 19:50:00,31.9,30.1,30.12,ENE,68,1.1,1.6,93,0.00,,,0.06,WUHU216HW,2013-01-11 03:50:00,
2013-01-10 19:55:00,32.0,30.2,30.12,East,90,0.7,1.8,93,0.00,,,0.06,WUHU216HW,2013-01-11 03:55:00,
2013-01-10 20:00:00,31.9,30.1,30.12,East,90,0.4,1.8,93,0.00,,,0.06,WUHU216HW,2013-01-11 04:00:00,
2013-01-10 20:05:00,31.7,29.9,30.12,East,90,0.9,1.6,93,0.00,,,0.06,WUHU216HW,2013-01-11 04:05:00,
2013-01-10 20:11:00,31.7,29.9,30.12,ENE,68,0.0,1.1,93,0.00,,,0.06,WUHU216HW,2013-01-11 04:11:00,
2013-01-10 20:16:00,31.5,29.7,30.12,East,90,0.0,1.1,93,0.00,,,0.06,WUHU216HW,2013-01-11 04:16:00,
2013-01-10 20:21:00,31.3,29.5,30.12,ENE,68,0.2,1.3,93,0.00,,,0.06,WUHU216HW,2013-01-11 04:21:00,
2013-01-10 20:26:00,31.3,29.5,30.12,East,90,0.9,1.3,93,0.00,,,0.06,WUHU216HW,2013-01-11 04:26:00,
2013-01-10 20:31:00,31.3,29.5,30.12,North,0,0.4,0.9,93,0.00,,,0.06,WUHU216HW,2013-01-11 04:31:00,
2013-01-10 20:36:00,31.3,29.5,30.12,NNE,23,0.2,1.3,93,0.00,,,0.06,WUHU216HW,2013-01-11 04:36:00,
2013-01-10 20:41:00,31.3,29.5,30.12,NNE,23,0.0,1.3,93,0.00,,,0.06,WUHU216HW,2013-01-11 04:41:00,
2013-01-10 20:46:00,31.1,29.3,30.12,NNE,23,1.3,1.3,93,0.00,,,0.06,WUHU216HW,2013-01-11 04:46:00,
2013-01-10 20:51:00,31.1,29.3,30.12,NE,45,0.0,1.3,93,0.00,,,0.06,WUHU216HW,2013-01-11 04:51:00,
2013-01-10 20:56:00,31.0,29.2,30.12,NE,45,0.0,0.7,93,0.00,,,0.06,WUHU216HW,2013-01-11 04:56:00,
2013-01-10 21:01:00,31.0,29.2,30.12,NE,45,0.0,0.7,93,0.00,,,0.06,WUHU216HW,2013-01-11 05:01:00,
2013-01-10 21:11:00,30.8,29.0,30.12,ESE,113,0.9,0.9,93,0.00,,,0.06,WUHU216HW,2013-01-11 05:11:00,
2013-01-10 21:16:00,30.8,29.0,30.12,East,90,0.9,0.9,93,0.00,,,0.06,WUHU216HW,2013-01-11 05:16:00,
2013-01-10 21:21:00,30.6,28.8,30.12,East,90,1.1,1.1,93,0.00,,,0.06,WUHU216HW,2013-01-11 05:21:00,
2013-01-10 21:26:00,30.6,28.8,30.12,East,90,1.1,1.3,93,0.00,,,0.06,WUHU216HW,2013-01-11 05:26:00,
2013-01-10 21:31:00,30.6,28.8,30.12,ESE,113,0.2,1.3,93,0.00,,,0.06,WUHU216HW,2013-01-11 05:31:00,
2013-01-10 21:36:00,30.4,28.6,30.12,East,90,0.0,1.3,93,0.00,,,0.06,WUHU216HW,2013-01-11 05:36:00,
2013-01-10 21:41:00,30.2,28.4,30.12,East,90,0.0,0.0,93,0.00,,,0.06,WUHU216HW,2013-01-11 05:41:00,
2013-01-10 21:46:00,29.9,28.1,30.12,East,90,0.0,0.2,93,0.00,,,0.06,WUHU216HW,2013-01-11 05:46:00,
2013-01-10 21:51:00,29.7,27.9,30.13,East,90,0.4,0.9,93,0.00,,,0.06,WUHU216HW,2013-01-11 05:51:00,
2013-01-10 21:56:00,29.7,27.9,30.13,East,90,0.4,0.9,93,0.00,,,0.06,WUHU216HW,2013-01-11 05:56:00,
2013-01-10 22:01:00,29.7,27.9,30.13,East,90,0.0,0.9,93,0.00,,,0.06,WUHU216HW,2013-01-11 06:01:00,
2013-01-10 22:06:00,29.5,27.7,30.13,East,90,0.0,0.4,93,0.00,,,0.06,WUHU216HW,2013-01-11 06:06:00,
2013-01-10 22:11:00,29.2,27.4,30.13,East,90,0.4,0.4,93,0.00,,,0.06,WUHU216HW,2013-01-11 06:11:00,
2013-01-10 22:16:00,29.2,27.4,30.13,East,90,0.7,1.1,93,0.00,,,0.06,WUHU216HW,2013-01-11 06:16:00,
2013-01-10 22:21:00,29.5,27.7,30.13,East,90,1.1,1.1,93,0.00,,,0.06,WUHU216HW,2013-01-11 06:21:00,
2013-01-10 22:26:00,29.5,27.7,30.13,East,90,0.7,1.3,93,0.00,,,0.06,WUHU216HW,2013-01-11 06:26:00,
2013-01-10 22:31:00,29.7,27.9,30.13,East,90,1.3,1.3,93,0.00,,,0.06,WUHU216HW,2013-01-11 06:31:00,
2013-01-10 22:36:00,29.7,27.9,30.13,East,90,1.1,1.8,93,0.00,,,0.06,WUHU216HW,2013-01-11 06:36:00,
2013-01-10 22:41:00,29.9,28.1,30.13,East,90,0.0,1.8,93,0.00,,,0.06,WUHU216HW,2013-01-11 06:41:00,
2013-01-10 22:46:00,29.7,27.9,30.13,East,90,0.0,1.1,93,0.00,,,0.06,WUHU216HW,2013-01-11 06:46:00,
2013-01-10 22:51:00,29.5,27.7,30.13,East,90,0.0,0.0,93,0.00,,,0.06,WUHU216HW,2013-01-11 06:51:00,
2013-01-10 22:56:00,29.5,27.7,30.13,East,90,1.1,1.1,93,0.00,,,0.06,WUHU216HW,2013-01-11 06:56:00,
2013-01-10 23:01:00,29.5,28.0,30.13,East,90,0.4,1.3,94,0.00,,,0.06,WUHU216HW,2013-01-11 07:01:00,
2013-01-10 23:06:00,29.7,28.2,30.14,East,90,0.7,1.3,94,0.00,,,0.06,WUHU216HW,2013-01-11 07:06:00,
2013-01-10 23:11:00,29.7,28.2,30.14,East,90,0.0,1.1,94,0.00,,,0.06,WUHU216HW,2013-01-11 07:11:00,
2013-01-10 23:16:00,29.7,28.2,30.14,East,90,0.2,1.1,94,0.00,,,0.06,WUHU216HW,2013-01-11 07:16:00,
2013-01-10 23:21:00,29.9,28.4,30.14,East,90,0.9,1.1,94,0.00,,,0.06,WUHU216HW,2013-01-11 07:21:00,
2013-01-10 23:26:00,30.2,28.7,30.14,East,90,0.4,1.8,94,0.00,,,0.06,WUHU216HW,2013-01-11 07:26:00,
2013-01-10 23:31:00,30.6,29.1,30.14,East,90,0.0,1.8,94,0.00,,,0.06,WUHU216HW,2013-01-11 07:31:00,
2013-01-10 23:36:00,30.8,29.3,30.14,East,90,0.0,1.8,94,0.00,,,0.06,WUHU216HW,2013-01-11 07:36:00,
2013-01-10 23:41:00,30.6,29.1,30.14,East,90,0.4,0.4,94,0.00,,,0.06,WUHU216HW,2013-01-11 07:41:00,
2013-01-10 23:46:00,30.6,29.1,30.14,East,90,0.0,1.1,94,0.00,,,0.06,WUHU216HW,2013-01-11 07:46:00,
2013-01-10 23:51:00,30.2,28.7,30.14,East,90,0.0,1.1,94,0.00,,,0.06,WUHU216HW,2013-01-11 07:51:00,
2013-01-10 23:56:00,29.9,28.1,30.14,East,90,0.0,0.0,93,0.00,,,0.06,WUHU216HW,2013-01-11 07:56:00,